createdAt,value
2017-08-07T00:02:02.489Z,53.80
2017-08-07T00:04:29.291Z,53.80
2017-08-07T00:06:55.464Z,54.20
2017-08-07T00:09:21.677Z,54.00
2017-08-07T00:11:47.874Z,54.70
2017-08-07T00:14:14.979Z,53.90
2017-08-07T00:16:41.151Z,55.20
2017-08-07T00:19:07.359Z,55.30
2017-08-07T00:21:33.523Z,56.00
2017-08-07T00:24:00.486Z,56.00
2017-08-07T00:26:26.654Z,56.00
2017-08-07T00:28:52.835Z,55.90
2017-08-07T00:31:19.754Z,56.10
2017-08-07T00:33:45.907Z,55.50
2017-08-07T00:36:12.111Z,56.00
2017-08-07T00:38:39.066Z,55.40
2017-08-07T00:41:05.953Z,55.80
2017-08-07T00:43:32.138Z,54.50
2017-08-07T00:45:59.049Z,54.40
2017-08-07T00:48:25.566Z,54.50
2017-08-07T00:50:51.692Z,54.30
2017-08-07T00:53:17.867Z,55.30
2017-08-07T00:55:44.103Z,55.20
2017-08-07T00:58:10.998Z,56.00
2017-08-07T01:00:37.176Z,55.90
2017-08-07T01:03:04.097Z,55.70
2017-08-07T01:05:30.274Z,55.30
2017-08-07T01:07:56.405Z,56.00
2017-08-07T01:10:22.546Z,56.00
2017-08-07T01:12:48.716Z,56.00
2017-08-07T01:15:14.890Z,56.00
2017-08-07T01:17:41.031Z,55.90
2017-08-07T01:20:07.162Z,56.40
2017-08-07T01:22:33.334Z,55.80
2017-08-07T01:24:59.466Z,55.90
2017-08-07T01:27:26.383Z,56.40
2017-08-07T01:29:52.524Z,55.10
2017-08-07T01:32:18.695Z,55.50
2017-08-07T01:34:44.865Z,55.30
2017-08-07T01:37:11.026Z,55.60
2017-08-07T01:39:38.014Z,57.10
2017-08-07T01:42:04.174Z,56.30
2017-08-07T01:44:30.327Z,55.90
2017-08-07T01:46:57.250Z,55.90
2017-08-07T01:49:23.441Z,55.90
2017-08-07T01:51:49.607Z,55.90
2017-08-07T01:54:15.803Z,55.20
2017-08-07T01:56:42.001Z,55.80
2017-08-07T01:59:08.226Z,55.80
2017-08-07T02:01:35.187Z,55.80
2017-08-07T02:04:01.375Z,55.80
2017-08-07T02:06:27.543Z,56.20
2017-08-07T02:08:53.717Z,56.60
2017-08-07T02:11:19.847Z,56.00
2017-08-07T02:13:46.001Z,56.10
2017-08-07T02:16:12.914Z,57.00
2017-08-07T02:18:39.096Z,56.90
2017-08-07T02:21:05.286Z,57.10
2017-08-07T02:23:31.461Z,57.20
2017-08-07T02:25:57.635Z,57.40
2017-08-07T02:28:23.780Z,57.00
2017-08-07T02:30:49.943Z,57.40
2017-08-07T02:33:16.115Z,57.10
2017-08-07T02:35:42.296Z,56.70
2017-08-07T02:38:08.473Z,56.80
2017-08-07T02:40:34.633Z,57.40
2017-08-07T02:43:00.798Z,56.90
2017-08-07T02:45:26.981Z,56.90
2017-08-07T02:47:53.122Z,57.30
2017-08-07T02:50:19.245Z,58.50
2017-08-07T02:52:45.424Z,58.50
2017-08-07T02:55:11.565Z,58.50
2017-08-07T02:57:37.733Z,58.10
2017-08-07T03:00:03.913Z,58.00
2017-08-07T03:02:30.042Z,58.10
2017-08-07T03:04:56.221Z,58.40
2017-08-07T03:07:22.387Z,59.20
2017-08-07T03:09:48.555Z,58.40
2017-08-07T03:12:15.451Z,58.20
2017-08-07T03:14:41.603Z,58.20
2017-08-07T03:17:07.798Z,58.80
2017-08-07T03:19:33.934Z,58.30
2017-08-07T03:22:00.054Z,58.30
2017-08-07T03:24:26.202Z,58.50
2017-08-07T03:26:52.384Z,58.10
2017-08-07T03:29:18.530Z,57.30
2017-08-07T03:31:44.687Z,58.00
2017-08-07T03:34:10.822Z,58.10
2017-08-07T03:39:04.873Z,57.30
2017-08-07T03:41:31.054Z,57.50
2017-08-07T03:43:57.201Z,58.40
2017-08-07T03:46:23.366Z,57.50
2017-08-07T03:48:49.517Z,58.60
2017-08-07T03:51:15.687Z,59.10
2017-08-07T03:53:41.837Z,59.10
2017-08-07T03:56:08.030Z,60.30
2017-08-07T03:58:34.927Z,59.70
2017-08-07T04:01:01.091Z,59.60
2017-08-07T04:03:28.002Z,59.40
2017-08-07T04:05:54.155Z,58.70
2017-08-07T04:08:20.352Z,58.90
2017-08-07T04:10:46.510Z,59.10
2017-08-07T04:13:12.681Z,59.80
2017-08-07T04:15:38.848Z,59.20
2017-08-07T04:18:05.005Z,58.70
2017-08-07T04:20:31.188Z,58.80
2017-08-07T04:22:57.342Z,58.00
2017-08-07T04:25:23.551Z,57.70
2017-08-07T04:27:49.701Z,57.70
2017-08-07T04:30:15.889Z,59.20
2017-08-07T04:32:42.013Z,58.40
2017-08-07T04:35:08.190Z,58.40
2017-08-07T04:37:34.362Z,59.10
2017-08-07T04:40:00.512Z,59.10
2017-08-07T04:42:26.726Z,59.80
2017-08-07T04:44:52.905Z,57.50
2017-08-07T04:47:19.834Z,59.70
2017-08-07T04:49:45.969Z,59.60
2017-08-07T04:52:12.148Z,59.10
2017-08-07T04:54:39.430Z,59.00
2017-08-07T04:57:05.621Z,60.10
2017-08-07T04:59:31.800Z,58.60
2017-08-07T05:01:57.992Z,60.50
2017-08-07T05:04:24.199Z,60.30
2017-08-07T05:06:50.332Z,59.20
2017-08-07T05:09:16.506Z,60.80
2017-08-07T05:11:42.676Z,59.70
2017-08-07T05:14:09.607Z,60.40
2017-08-07T05:16:36.546Z,59.80
2017-08-07T05:19:02.722Z,59.30
2017-08-07T05:21:28.902Z,60.50
2017-08-07T05:23:55.053Z,60.30
2017-08-07T05:26:21.258Z,60.00
2017-08-07T05:28:47.394Z,58.10
2017-08-07T05:31:14.273Z,57.40
2017-08-07T05:33:40.506Z,58.70
2017-08-07T05:36:06.692Z,58.90
2017-08-07T05:38:33.594Z,60.00
2017-08-07T05:40:59.795Z,57.70
2017-08-07T05:43:25.948Z,57.40
2017-08-07T05:45:52.103Z,57.90
2017-08-07T05:48:18.294Z,56.50
2017-08-07T05:50:44.424Z,56.90
2017-08-07T05:53:10.561Z,56.10
2017-08-07T05:55:36.773Z,53.50
2017-08-07T05:58:02.975Z,53.40
2017-08-07T06:00:29.870Z,52.50
2017-08-07T06:02:56.052Z,51.40
2017-08-07T06:05:23.126Z,51.10
2017-08-07T06:07:49.304Z,51.80
2017-08-07T06:10:15.460Z,49.80
2017-08-07T06:12:41.608Z,48.80
2017-08-07T06:15:07.772Z,48.00
2017-08-07T06:17:33.916Z,47.90
2017-08-07T06:20:00.089Z,48.20
2017-08-07T06:22:26.258Z,48.50
2017-08-07T06:24:52.414Z,48.80
2017-08-07T06:27:19.305Z,47.60
2017-08-07T06:29:45.524Z,47.80
2017-08-07T06:32:11.702Z,46.60
2017-08-07T06:34:38.648Z,45.70
2017-08-07T06:37:05.583Z,45.60
2017-08-07T06:39:31.724Z,45.50
2017-08-07T06:41:58.655Z,44.30
2017-08-07T06:44:25.581Z,45.40
2017-08-07T06:46:51.742Z,45.30
2017-08-07T06:49:18.667Z,44.90
2017-08-07T06:51:44.842Z,44.80
2017-08-07T06:54:11.047Z,44.50
2017-08-07T06:56:37.970Z,43.00
2017-08-07T06:59:04.155Z,43.00
2017-08-07T07:01:30.295Z,42.00
2017-08-07T07:03:56.852Z,41.90
2017-08-07T07:06:23.777Z,41.80
2017-08-07T07:08:50.082Z,41.10
2017-08-07T07:11:16.221Z,41.10
2017-08-07T07:13:42.355Z,41.70
2017-08-07T07:16:08.543Z,40.60
2017-08-07T07:18:35.822Z,40.40
2017-08-07T07:21:01.979Z,40.90
2017-08-07T07:23:28.158Z,39.90
2017-08-07T07:25:55.054Z,40.90
2017-08-07T07:28:21.224Z,38.70
2017-08-07T07:30:48.126Z,38.40
2017-08-07T07:33:14.350Z,38.30
2017-08-07T07:35:40.541Z,36.80
2017-08-07T07:38:06.734Z,37.20
2017-08-07T07:40:32.918Z,38.50
2017-08-07T07:42:59.153Z,37.20
2017-08-07T07:45:25.329Z,37.80
2017-08-07T07:47:51.507Z,36.60
2017-08-07T07:50:17.704Z,36.40
2017-08-07T07:52:43.883Z,37.80
2017-08-07T07:55:10.093Z,38.30
2017-08-07T07:57:36.282Z,35.80
2017-08-07T08:00:02.841Z,34.50
2017-08-07T08:02:29.062Z,35.00
2017-08-07T08:04:55.234Z,35.00
2017-08-07T08:07:21.394Z,35.40
2017-08-07T08:09:48.311Z,34.40
2017-08-07T08:12:14.514Z,33.70
2017-08-07T08:14:40.642Z,34.00
2017-08-07T08:17:06.783Z,34.60
2017-08-07T08:19:32.984Z,34.60
2017-08-07T08:21:59.201Z,33.40
2017-08-07T08:24:25.404Z,33.70
2017-08-07T08:26:52.313Z,35.00
2017-08-07T08:29:18.494Z,35.10
2017-08-07T08:31:44.680Z,34.80
2017-08-07T08:34:10.872Z,35.10
2017-08-07T08:36:37.034Z,36.70
2017-08-07T08:39:03.238Z,37.30
2017-08-07T08:41:29.419Z,38.80
2017-08-07T08:43:56.341Z,38.70
2017-08-07T08:46:22.497Z,38.60
2017-08-07T08:48:49.454Z,38.50
2017-08-07T08:51:15.663Z,38.40
2017-08-07T08:53:41.853Z,37.70
2017-08-07T08:56:08.055Z,37.10
2017-08-07T08:58:34.360Z,38.20
2017-08-07T09:01:01.288Z,37.90
2017-08-07T09:03:29.240Z,37.80
2017-08-07T09:05:55.445Z,36.80
2017-08-07T09:08:21.573Z,37.00
2017-08-07T09:10:47.719Z,37.70
2017-08-07T09:13:13.922Z,39.10
2017-08-07T09:15:40.075Z,38.30
2017-08-07T09:18:06.271Z,37.90
2017-08-07T09:20:32.462Z,37.50
2017-08-07T09:22:59.362Z,39.50
2017-08-07T09:25:25.584Z,39.40
2017-08-07T09:27:51.743Z,38.10
2017-08-07T09:30:17.898Z,37.70
2017-08-07T09:32:44.785Z,36.80
2017-08-07T09:35:10.966Z,36.90
2017-08-07T09:37:37.862Z,38.10
2017-08-07T09:40:04.016Z,36.60
2017-08-07T09:42:30.233Z,37.10
2017-08-07T09:44:56.554Z,37.50
2017-08-07T09:47:22.726Z,37.10
2017-08-07T09:49:49.647Z,37.70
2017-08-07T09:52:15.805Z,37.00
2017-08-07T09:54:42.760Z,36.10
2017-08-07T09:57:09.705Z,35.30
2017-08-07T09:59:35.887Z,33.90
2017-08-07T10:02:02.043Z,33.40
2017-08-07T10:04:28.966Z,32.20
2017-08-07T10:06:55.139Z,31.30
2017-08-07T10:09:21.272Z,30.20
2017-08-07T10:11:47.420Z,30.80
2017-08-07T10:14:13.593Z,31.80
2017-08-07T10:16:40.123Z,29.70
2017-08-07T10:19:06.291Z,31.40
2017-08-07T10:21:32.446Z,32.90
2017-08-07T10:23:58.655Z,31.90
2017-08-07T10:26:24.934Z,32.60
2017-08-07T10:28:51.073Z,31.70
2017-08-07T10:31:18.043Z,33.30
2017-08-07T10:33:44.252Z,33.30
2017-08-07T10:36:11.152Z,32.90
2017-08-07T10:38:37.337Z,32.90
2017-08-07T10:41:04.242Z,35.20
2017-08-07T10:43:30.411Z,35.00
2017-08-07T10:45:57.395Z,34.00
2017-08-07T10:48:23.589Z,34.10
2017-08-07T10:50:49.755Z,31.80
2017-08-07T10:53:15.952Z,31.70
2017-08-07T10:55:42.133Z,33.00
2017-08-07T10:58:08.302Z,34.10
2017-08-07T11:00:34.722Z,34.10
2017-08-07T11:03:01.706Z,33.70
2017-08-07T11:05:27.851Z,33.40
2017-08-07T11:07:54.002Z,33.20
2017-08-07T11:10:20.142Z,32.50
2017-08-07T11:12:47.042Z,31.70
2017-08-07T11:15:13.216Z,29.70
2017-08-07T11:17:40.132Z,30.70
2017-08-07T11:20:06.299Z,30.60
2017-08-07T11:22:33.270Z,28.80
2017-08-07T11:24:59.424Z,28.60
2017-08-07T11:27:25.637Z,29.10
2017-08-07T11:29:51.803Z,31.90
2017-08-07T11:32:17.994Z,31.40
2017-08-07T11:34:44.155Z,30.50
2017-08-07T11:37:10.719Z,30.00
2017-08-07T11:39:37.719Z,32.10
2017-08-07T11:42:03.902Z,31.50
2017-08-07T11:44:30.069Z,30.60
2017-08-07T11:46:56.252Z,31.50
2017-08-07T11:49:23.128Z,30.60
2017-08-07T11:51:49.349Z,30.50
2017-08-07T11:54:15.522Z,32.00
2017-08-07T11:56:41.728Z,29.20
2017-08-07T11:59:07.892Z,29.80
2017-08-07T12:01:34.136Z,29.10
2017-08-07T12:04:01.097Z,30.60
2017-08-07T12:06:27.288Z,30.60
2017-08-07T12:08:53.435Z,31.10
2017-08-07T12:11:20.342Z,32.30
2017-08-07T12:13:46.502Z,31.80
2017-08-07T12:16:13.422Z,31.00
2017-08-07T12:18:39.609Z,30.90
2017-08-07T12:21:05.785Z,28.70
2017-08-07T12:23:32.060Z,28.90
2017-08-07T12:25:58.252Z,29.80
2017-08-07T12:28:24.427Z,30.90
2017-08-07T12:30:50.586Z,31.10
2017-08-07T12:33:16.730Z,29.80
2017-08-07T12:35:42.892Z,31.90
2017-08-07T12:38:09.065Z,31.20
2017-08-07T12:40:35.312Z,29.40
2017-08-07T12:43:01.519Z,29.80
2017-08-07T12:45:28.416Z,29.50
2017-08-07T12:47:54.583Z,29.30
2017-08-07T12:50:20.738Z,29.40
2017-08-07T12:52:46.952Z,29.50
2017-08-07T12:55:13.874Z,30.10
2017-08-07T12:57:40.423Z,29.90
2017-08-07T13:00:06.612Z,29.60
2017-08-07T13:02:32.775Z,29.20
2017-08-07T13:04:58.966Z,31.00
2017-08-07T13:07:25.861Z,33.70
2017-08-07T13:09:52.071Z,33.90
2017-08-07T13:12:18.234Z,31.80
2017-08-07T13:14:45.451Z,31.60
2017-08-07T13:17:11.657Z,31.40
2017-08-07T13:19:37.918Z,30.10
2017-08-07T13:22:04.073Z,30.10
2017-08-07T13:24:30.986Z,29.60
2017-08-07T13:26:57.184Z,29.00
2017-08-07T13:29:23.326Z,27.50
2017-08-07T13:31:50.443Z,28.40
2017-08-07T13:34:17.367Z,28.50
2017-08-07T13:36:43.513Z,27.80
2017-08-07T13:39:10.438Z,29.30
2017-08-07T13:41:36.602Z,29.00
2017-08-07T13:44:03.548Z,29.10
2017-08-07T13:46:30.482Z,28.30
2017-08-07T13:48:57.402Z,30.10
2017-08-07T13:51:23.624Z,30.00
2017-08-07T13:53:49.799Z,28.20
2017-08-07T13:56:16.015Z,28.00
2017-08-07T13:58:42.215Z,28.30
2017-08-07T14:01:08.423Z,28.80
2017-08-07T14:03:34.589Z,28.60
2017-08-07T14:06:00.763Z,28.00
2017-08-07T14:08:26.923Z,28.70
2017-08-07T14:10:53.104Z,29.80
2017-08-07T14:13:19.288Z,28.90
2017-08-07T14:15:45.464Z,29.60
2017-08-07T14:18:11.695Z,30.10
2017-08-07T14:20:37.826Z,29.80
2017-08-07T14:23:03.996Z,31.60
2017-08-07T14:25:31.312Z,31.40
2017-08-07T14:27:57.475Z,31.40
2017-08-07T14:30:23.686Z,32.00
2017-08-07T14:32:49.866Z,30.30
2017-08-07T14:35:16.391Z,32.00
2017-08-07T14:37:43.319Z,33.30
2017-08-07T14:40:10.975Z,34.80
2017-08-07T14:42:37.210Z,35.40
2017-08-07T14:45:03.391Z,33.80
2017-08-07T14:47:29.561Z,34.50
2017-08-07T14:49:56.499Z,33.80
2017-08-07T14:52:22.666Z,32.30
2017-08-07T14:54:50.313Z,33.80
2017-08-07T14:57:16.873Z,33.90
2017-08-07T14:59:43.043Z,33.80
2017-08-07T15:02:09.197Z,33.80
2017-08-07T15:04:35.354Z,33.80
2017-08-07T15:07:01.522Z,33.70
2017-08-07T15:09:28.719Z,33.60
2017-08-07T15:11:55.739Z,32.60
2017-08-07T15:14:21.923Z,33.60
2017-08-07T15:16:48.884Z,32.80
2017-08-07T15:19:15.984Z,36.00
2017-08-07T15:21:43.777Z,34.10
2017-08-07T15:24:25.571Z,33.90
2017-08-07T15:26:52.587Z,34.30
2017-08-07T15:29:18.794Z,33.90
2017-08-07T15:31:44.976Z,34.40
2017-08-07T15:34:12.306Z,35.30
2017-08-07T15:36:39.555Z,36.00
2017-08-07T15:39:06.239Z,35.50
2017-08-07T15:41:34.896Z,36.10
2017-08-07T15:44:02.937Z,36.20
2017-08-07T15:46:29.840Z,35.60
2017-08-07T15:48:57.505Z,33.60
2017-08-07T15:51:24.342Z,34.40
2017-08-07T15:53:50.512Z,33.70
2017-08-07T15:56:16.702Z,36.70
2017-08-07T15:58:42.902Z,36.50
2017-08-07T16:01:09.855Z,34.60
2017-08-07T16:03:36.791Z,34.20
2017-08-07T16:06:03.702Z,35.00
2017-08-07T16:08:29.869Z,33.90
2017-08-07T16:10:56.786Z,36.60
2017-08-07T16:13:22.945Z,36.50
2017-08-07T16:15:49.155Z,36.00
2017-08-07T16:18:16.064Z,38.10
2017-08-07T16:20:42.273Z,37.20
2017-08-07T16:23:08.512Z,37.80
2017-08-07T16:25:34.723Z,34.30
2017-08-07T16:28:00.861Z,36.40
2017-08-07T16:30:30.986Z,35.50
2017-08-07T16:32:57.164Z,36.70
2017-08-07T16:35:24.075Z,35.70
2017-08-07T16:37:50.273Z,35.70
2017-08-07T16:40:16.412Z,36.20
2017-08-07T16:42:43.713Z,35.80
2017-08-07T16:45:10.691Z,37.30
2017-08-07T16:47:37.410Z,36.30
2017-08-07T16:50:04.338Z,37.50
2017-08-07T16:52:30.533Z,37.60
2017-08-07T16:54:56.744Z,36.80
2017-08-07T16:57:22.918Z,36.90
2017-08-07T16:59:49.110Z,36.80
2017-08-07T17:02:16.264Z,37.40
2017-08-07T17:04:42.515Z,38.00
2017-08-07T17:07:08.729Z,37.90
2017-08-07T17:09:34.911Z,38.00
2017-08-07T17:12:01.810Z,38.60
2017-08-07T17:14:27.987Z,38.00
2017-08-07T17:16:54.881Z,36.80
2017-08-07T17:19:21.098Z,37.50
2017-08-07T17:21:47.294Z,37.60
2017-08-07T17:24:13.458Z,37.90
2017-08-07T17:26:39.768Z,36.80
2017-08-07T17:29:05.984Z,36.80
2017-08-07T17:31:32.133Z,36.80
2017-08-07T17:33:58.353Z,38.10
2017-08-07T17:36:24.558Z,38.40
2017-08-07T17:38:51.483Z,37.30
2017-08-07T17:41:17.675Z,38.30
2017-08-07T17:43:45.329Z,37.00
2017-08-07T17:46:11.562Z,38.70
2017-08-07T17:48:37.798Z,38.20
2017-08-07T17:51:05.742Z,39.40
2017-08-07T17:53:31.922Z,37.80
2017-08-07T17:55:58.123Z,38.30
2017-08-07T17:58:24.347Z,39.30
2017-08-07T18:01:05.458Z,38.60
2017-08-07T18:03:31.942Z,39.70
2017-08-07T18:05:58.180Z,40.30
2017-08-07T18:08:24.329Z,41.50
2017-08-07T18:10:50.895Z,40.30
2017-08-07T18:13:17.903Z,41.10
2017-08-07T18:15:44.151Z,40.90
2017-08-07T18:18:11.106Z,42.00
2017-08-07T18:20:37.262Z,40.80
2017-08-07T18:23:04.995Z,41.40
2017-08-07T18:25:31.182Z,40.40
2017-08-07T18:27:57.335Z,41.30
2017-08-07T18:30:23.562Z,41.20
2017-08-07T18:32:49.753Z,40.60
2017-08-07T18:35:15.920Z,41.00
2017-08-07T18:37:42.986Z,41.50
2017-08-07T18:40:09.207Z,40.50
2017-08-07T18:42:35.382Z,41.20
2017-08-07T18:45:03.635Z,41.60
2017-08-07T18:47:31.776Z,41.70
2017-08-07T18:49:57.942Z,41.50
2017-08-07T18:52:24.208Z,41.90
2017-08-07T18:54:50.389Z,42.20
2017-08-07T18:57:18.922Z,42.70
2017-08-07T18:59:45.147Z,42.80
2017-08-07T19:11:56.356Z,44.30
2017-08-07T19:14:24.774Z,44.70
2017-08-07T19:16:50.973Z,44.50
2017-08-07T19:19:17.943Z,45.10
2017-08-07T19:21:44.679Z,44.40
2017-08-07T19:24:10.926Z,45.30
2017-08-07T19:26:37.745Z,43.90
2017-08-07T19:29:07.079Z,45.20
2017-08-07T19:31:33.533Z,45.00
2017-08-07T19:33:59.744Z,45.10
2017-08-07T19:36:27.084Z,45.10
2017-08-07T19:38:53.293Z,46.30
2017-08-07T19:41:19.482Z,46.80
2017-08-07T19:43:45.728Z,45.80
2017-08-07T19:46:12.816Z,46.70
2017-08-07T19:48:39.678Z,46.80
2017-08-07T19:51:06.258Z,47.80
2017-08-07T19:53:33.550Z,47.10
2017-08-07T19:55:59.812Z,47.70
2017-08-07T19:58:27.732Z,46.70
2017-08-07T20:00:54.860Z,47.20
2017-08-07T20:03:21.901Z,46.60
2017-08-07T20:05:48.263Z,47.30
2017-08-07T20:08:14.496Z,46.60
2017-08-07T20:10:41.974Z,47.50
2017-08-07T20:13:08.194Z,46.90
2017-08-07T20:15:34.432Z,46.90
2017-08-07T20:18:02.310Z,47.40
2017-08-07T20:20:29.529Z,48.10
2017-08-07T20:22:55.709Z,46.90
2017-08-07T20:25:21.927Z,47.30
2017-08-07T20:27:49.287Z,47.20
2017-08-07T20:30:16.289Z,47.10
2017-08-07T20:32:45.826Z,47.20
2017-08-07T20:35:12.082Z,47.20
2017-08-07T20:37:38.303Z,48.40
2017-08-07T20:40:04.522Z,48.30
2017-08-07T20:42:31.620Z,47.20
2017-08-07T20:44:57.869Z,47.70
2017-08-07T20:47:24.133Z,47.70
2017-08-07T20:49:50.345Z,47.90
2017-08-07T20:52:16.489Z,48.40
2017-08-07T20:54:42.690Z,47.70
2017-08-07T20:57:08.951Z,48.70
2017-08-07T20:59:35.195Z,48.80
2017-08-07T21:02:01.382Z,49.90
2017-08-07T21:04:27.549Z,49.00
2017-08-07T21:06:53.723Z,49.60
2017-08-07T21:09:20.154Z,50.30
2017-08-07T21:11:46.415Z,49.50
2017-08-07T21:14:12.710Z,50.60
2017-08-07T21:16:38.898Z,51.10
2017-08-07T21:19:05.078Z,50.90
2017-08-07T21:21:31.315Z,51.10
2017-08-07T21:23:57.493Z,50.10
2017-08-07T21:26:23.662Z,51.10
2017-08-07T21:28:50.239Z,51.10
2017-08-07T21:31:16.449Z,51.60
2017-08-07T21:33:42.610Z,51.70
2017-08-07T21:36:09.467Z,50.80
2017-08-07T21:38:35.642Z,51.80
2017-08-07T21:41:01.833Z,51.50
2017-08-07T21:43:28.785Z,52.30
2017-08-07T21:45:54.934Z,52.20
2017-08-07T21:48:21.114Z,51.40
2017-08-07T21:50:47.275Z,51.90
2017-08-07T21:53:13.413Z,52.30
2017-08-07T21:55:39.602Z,52.10
2017-08-07T21:58:06.534Z,52.40
2017-08-07T22:00:32.726Z,52.40
2017-08-07T22:02:58.939Z,52.10
2017-08-07T22:05:27.304Z,51.50
2017-08-07T22:07:53.474Z,51.70
2017-08-07T22:10:20.054Z,52.70
2017-08-07T22:12:46.985Z,52.80
2017-08-07T22:15:13.214Z,52.70
2017-08-07T22:17:39.414Z,53.40
2017-08-07T22:20:05.686Z,52.50
2017-08-07T22:22:31.873Z,52.60
2017-08-07T22:24:59.151Z,52.60
2017-08-07T22:27:25.331Z,52.80
2017-08-07T22:29:51.475Z,52.70
2017-08-07T22:32:17.663Z,52.30
2017-08-07T22:34:44.601Z,52.60
2017-08-07T22:37:10.785Z,51.80
2017-08-07T22:39:36.954Z,52.00
2017-08-07T22:42:03.895Z,53.40
2017-08-07T22:44:30.082Z,53.40
2017-08-07T22:46:56.276Z,51.70
2017-08-07T22:49:22.459Z,52.70
2017-08-07T22:51:48.694Z,53.20
2017-08-07T22:54:14.874Z,52.70
2017-08-07T22:56:41.030Z,52.90
2017-08-07T22:59:08.890Z,52.70
2017-08-07T23:01:35.066Z,52.70
2017-08-07T23:04:01.954Z,53.60
2017-08-07T23:06:28.137Z,52.50
2017-08-07T23:08:55.035Z,54.20
2017-08-07T23:11:21.232Z,54.10
2017-08-07T23:13:47.410Z,53.40
2017-08-07T23:16:15.079Z,53.60
2017-08-07T23:18:41.260Z,53.50
2017-08-07T23:21:07.445Z,53.80
2017-08-07T23:23:33.683Z,53.70
2017-08-07T23:26:00.602Z,54.50
2017-08-07T23:28:26.761Z,54.30
2017-08-07T23:30:52.960Z,54.40
2017-08-07T23:33:19.154Z,53.70
2017-08-07T23:35:45.327Z,54.50
2017-08-07T23:38:11.460Z,55.00
2017-08-07T23:40:37.616Z,54.40
2017-08-07T23:43:03.754Z,54.30
2017-08-07T23:45:29.911Z,54.70
2017-08-07T23:47:56.823Z,54.40
2017-08-07T23:50:22.994Z,54.80
2017-08-07T23:52:50.979Z,55.10
2017-08-07T23:55:17.127Z,55.90
2017-08-07T23:57:44.073Z,55.90
